createdAt,value
2018-03-18T00:02:01.936Z,55.80
2018-03-18T00:04:29.502Z,66.22
2018-03-18T00:06:57.118Z,58.28
2018-03-18T00:09:25.455Z,60.00
2018-03-18T00:11:53.066Z,56.60
2018-03-18T00:14:20.632Z,58.00
2018-03-18T00:16:48.227Z,59.33
2018-03-18T00:19:15.790Z,60.47
2018-03-18T00:21:43.388Z,59.58
2018-03-18T00:24:11.811Z,61.30
2018-03-18T00:26:39.485Z,61.80
2018-03-18T00:29:07.090Z,61.17
2018-03-18T00:31:35.423Z,63.10
2018-03-18T00:34:03.015Z,61.55
2018-03-18T00:36:31.371Z,49.60
2018-03-18T00:38:59.103Z,53.42
2018-03-18T00:41:26.807Z,42.95
2018-03-18T00:43:54.367Z,55.50
2018-03-18T00:46:21.954Z,62.10
2018-03-18T00:48:49.587Z,56.37
2018-03-18T00:51:29.191Z,58.75
2018-03-18T00:53:56.783Z,58.45
2018-03-18T00:56:24.407Z,58.90
2018-03-18T00:58:51.970Z,61.22
2018-03-18T01:01:19.579Z,60.78
2018-03-18T01:03:47.919Z,56.67
2018-03-18T01:06:15.520Z,46.80
2018-03-18T01:08:43.114Z,56.47
2018-03-18T01:11:10.719Z,53.00
2018-03-18T01:13:39.138Z,49.80
2018-03-18T01:16:06.838Z,52.62
2018-03-18T01:18:34.406Z,57.47
2018-03-18T01:21:02.011Z,59.83
2018-03-18T01:23:29.579Z,51.72
2018-03-18T01:25:57.167Z,60.88
2018-03-18T01:28:24.775Z,55.95
2018-03-18T01:30:52.347Z,54.75
2018-03-18T01:33:19.958Z,57.15
2018-03-18T01:35:47.573Z,57.90
2018-03-18T01:38:15.249Z,56.28
2018-03-18T01:40:42.834Z,53.63
2018-03-18T01:43:10.515Z,52.70
2018-03-18T01:45:38.866Z,48.67
2018-03-18T01:48:06.486Z,62.28
2018-03-18T01:50:34.138Z,54.25
2018-03-18T01:56:00.964Z,46.33
2018-03-18T01:58:29.361Z,47.90
2018-03-18T02:00:57.699Z,44.80
2018-03-18T02:03:26.075Z,39.40
2018-03-18T02:05:53.638Z,38.40
2018-03-18T02:08:21.211Z,40.97
2018-03-18T02:10:48.811Z,43.20
2018-03-18T02:13:16.407Z,38.83
2018-03-18T02:15:44.016Z,40.50
2018-03-18T02:18:11.647Z,43.05
2018-03-18T02:20:39.366Z,46.08
2018-03-18T02:23:06.927Z,45.22
2018-03-18T02:25:34.526Z,50.15
2018-03-18T02:28:02.097Z,47.72
2018-03-18T02:30:29.698Z,48.40
2018-03-18T02:32:57.302Z,43.17
2018-03-18T02:35:24.864Z,47.10
2018-03-18T02:37:52.484Z,44.97
2018-03-18T02:40:20.071Z,36.60
2018-03-18T02:42:47.671Z,40.92
2018-03-18T02:45:15.255Z,40.20
2018-03-18T02:47:42.866Z,41.50
2018-03-18T02:50:11.204Z,34.40
2018-03-18T02:52:38.787Z,40.05
2018-03-18T02:55:06.472Z,40.25
2018-03-18T02:57:34.814Z,42.90
2018-03-18T03:00:02.435Z,40.60
2018-03-18T03:02:30.000Z,40.58
2018-03-18T03:04:57.605Z,40.50
2018-03-18T03:07:25.175Z,34.92
2018-03-18T03:09:53.531Z,37.08
2018-03-18T03:12:21.110Z,34.72
2018-03-18T03:14:49.498Z,37.50
2018-03-18T03:17:17.854Z,34.65
2018-03-18T03:19:45.430Z,34.08
2018-03-18T03:22:13.802Z,35.28
2018-03-18T03:24:42.135Z,36.22
2018-03-18T03:27:09.731Z,31.23
2018-03-18T03:29:37.498Z,37.95
2018-03-18T03:32:05.884Z,36.28
2018-03-18T03:34:34.207Z,35.83
2018-03-18T03:37:01.784Z,38.53
2018-03-18T03:39:29.391Z,37.30
2018-03-18T03:41:56.957Z,35.80
2018-03-18T03:44:24.554Z,39.83
2018-03-18T03:46:52.132Z,35.92
2018-03-18T03:49:19.729Z,34.88
2018-03-18T03:51:47.318Z,34.33
2018-03-18T03:54:14.918Z,35.95
2018-03-18T03:56:42.482Z,35.55
2018-03-18T03:59:10.903Z,33.75
2018-03-18T04:01:38.462Z,28.35
2018-03-18T04:04:06.084Z,31.73
2018-03-18T04:06:34.474Z,34.13
2018-03-18T04:09:02.806Z,34.15
2018-03-18T04:11:30.522Z,30.62
2018-03-18T04:13:58.087Z,32.60
2018-03-18T04:16:25.674Z,31.52
2018-03-18T04:18:53.246Z,30.17
2018-03-18T04:21:20.863Z,31.65
2018-03-18T04:23:48.443Z,30.75
2018-03-18T04:26:16.036Z,27.52
2018-03-18T04:28:43.634Z,27.62
2018-03-18T04:31:11.234Z,30.77
2018-03-18T04:33:38.863Z,35.08
2018-03-18T04:36:06.550Z,31.05
2018-03-18T04:38:34.118Z,33.42
2018-03-18T04:41:01.774Z,30.95
2018-03-18T04:43:29.466Z,34.10
2018-03-18T04:45:57.195Z,35.17
2018-03-18T04:48:24.759Z,31.95
2018-03-18T04:50:52.394Z,32.92
2018-03-18T04:53:19.986Z,35.47
2018-03-18T04:55:47.554Z,30.12
2018-03-18T04:58:15.159Z,32.92
2018-03-18T05:00:42.732Z,36.78
2018-03-18T05:03:10.328Z,27.13
2018-03-18T05:05:37.907Z,36.05
2018-03-18T05:08:06.277Z,32.95
2018-03-18T05:10:33.847Z,33.08
2018-03-18T05:13:01.486Z,30.90
2018-03-18T05:15:29.226Z,27.77
2018-03-18T05:17:56.788Z,35.85
2018-03-18T05:20:24.383Z,29.85
2018-03-18T05:22:52.769Z,31.48
2018-03-18T05:25:20.551Z,29.67
2018-03-18T05:27:48.114Z,32.08
2018-03-18T05:30:15.726Z,25.90
2018-03-18T05:32:43.327Z,27.70
2018-03-18T05:35:10.887Z,30.23
2018-03-18T05:37:38.482Z,28.15
2018-03-18T05:40:06.048Z,31.27
2018-03-18T05:42:33.659Z,29.90
2018-03-18T05:45:01.222Z,27.75
2018-03-18T05:47:28.802Z,27.48
2018-03-18T05:49:56.367Z,25.75
2018-03-18T05:52:23.967Z,30.52
2018-03-18T05:54:52.304Z,26.77
2018-03-18T05:57:19.871Z,15.57
2018-03-18T05:59:47.462Z,27.05
2018-03-18T06:02:15.803Z,23.23
2018-03-18T06:04:43.399Z,13.10
2018-03-18T06:07:11.731Z,18.35
2018-03-18T06:09:39.320Z,24.80
2018-03-18T06:12:07.674Z,24.40
2018-03-18T06:14:35.263Z,27.95
2018-03-18T06:17:03.601Z,25.15
2018-03-18T06:19:31.167Z,22.77
2018-03-18T06:21:58.752Z,19.33
2018-03-18T06:24:26.318Z,22.87
2018-03-18T06:26:54.758Z,23.58
2018-03-18T06:29:22.338Z,25.85
2018-03-18T06:31:49.984Z,24.92
2018-03-18T06:34:17.555Z,25.42
2018-03-18T06:36:45.118Z,23.90
2018-03-18T06:39:12.707Z,31.58
2018-03-18T06:41:41.037Z,22.30
2018-03-18T06:44:08.674Z,25.73
2018-03-18T06:46:36.242Z,25.60
2018-03-18T06:49:03.850Z,26.40
2018-03-18T06:51:32.192Z,24.83
2018-03-18T06:53:59.766Z,27.48
2018-03-18T06:56:27.372Z,21.87
2018-03-18T06:58:54.972Z,23.17
2018-03-18T07:01:22.570Z,26.62
2018-03-18T07:03:50.939Z,22.95
2018-03-18T07:06:19.366Z,25.80
2018-03-18T07:08:47.039Z,20.92
2018-03-18T07:11:14.723Z,20.15
2018-03-18T07:13:42.439Z,26.25
2018-03-18T07:16:10.055Z,25.75
2018-03-18T07:18:38.531Z,21.80
2018-03-18T07:21:06.371Z,22.95
2018-03-18T07:23:33.989Z,24.35
2018-03-18T07:26:01.579Z,23.40
2018-03-18T07:28:29.166Z,22.58
2018-03-18T07:30:56.774Z,24.77
2018-03-18T07:33:24.350Z,23.27
2018-03-18T07:35:52.002Z,21.45
2018-03-18T07:38:19.586Z,22.08
2018-03-18T07:40:47.166Z,26.67
2018-03-18T07:43:14.780Z,23.42
2018-03-18T07:45:42.486Z,20.88
2018-03-18T07:48:10.859Z,22.95
2018-03-18T07:50:38.490Z,25.33
2018-03-18T07:53:06.078Z,24.02
2018-03-18T07:55:33.675Z,26.42
2018-03-18T07:58:01.270Z,25.40
2018-03-18T08:00:28.835Z,29.65
2018-03-18T08:02:56.447Z,28.30
2018-03-18T08:05:24.046Z,26.80
2018-03-18T08:07:51.630Z,23.55
2018-03-18T08:10:19.360Z,23.10
2018-03-18T08:12:46.951Z,22.48
2018-03-18T08:15:14.548Z,21.60
2018-03-18T08:17:42.107Z,24.60
2018-03-18T08:20:09.704Z,23.45
2018-03-18T08:22:37.271Z,23.02
2018-03-18T08:25:04.873Z,18.85
2018-03-18T08:27:33.212Z,22.33
2018-03-18T08:30:00.822Z,21.33
2018-03-18T08:32:28.530Z,23.73
2018-03-18T08:34:56.098Z,19.60
2018-03-18T08:37:23.698Z,24.63
2018-03-18T08:39:51.294Z,24.05
2018-03-18T08:42:29.711Z,18.75
2018-03-18T08:44:57.310Z,18.48
2018-03-18T08:47:25.785Z,26.20
2018-03-18T08:49:54.143Z,19.10
2018-03-18T08:52:21.763Z,21.08
2018-03-18T08:54:49.350Z,13.68
2018-03-18T08:57:16.997Z,20.80
2018-03-18T08:59:44.582Z,21.80
2018-03-18T09:02:12.152Z,22.92
2018-03-18T09:04:39.750Z,20.58
2018-03-18T09:07:07.391Z,25.20
2018-03-18T09:09:35.729Z,15.93
2018-03-18T09:12:03.387Z,27.17
2018-03-18T09:14:30.982Z,24.02
2018-03-18T09:16:59.367Z,24.42
2018-03-18T09:19:27.756Z,25.20
2018-03-18T09:21:55.319Z,22.73
2018-03-18T09:24:22.907Z,23.00
2018-03-18T09:26:50.504Z,19.50
2018-03-18T09:29:18.928Z,15.50
2018-03-18T09:31:46.624Z,17.90
2018-03-18T09:34:14.188Z,19.90
2018-03-18T09:36:41.790Z,23.40
2018-03-18T09:39:09.552Z,28.62
2018-03-18T09:41:37.175Z,27.15
2018-03-18T09:44:04.742Z,22.10
2018-03-18T09:46:32.347Z,18.62
2018-03-18T09:48:59.916Z,23.12
2018-03-18T09:51:27.513Z,24.37
2018-03-18T09:53:55.127Z,20.08
2018-03-18T09:56:22.743Z,26.70
2018-03-18T09:58:50.329Z,21.60
2018-03-18T10:01:17.899Z,20.08
2018-03-18T10:03:45.468Z,25.60
2018-03-18T10:06:13.066Z,20.65
2018-03-18T10:08:40.785Z,20.88
2018-03-18T10:11:08.376Z,18.48
2018-03-18T10:13:35.985Z,24.00
2018-03-18T10:16:03.579Z,21.95
2018-03-18T10:18:31.172Z,24.35
2018-03-18T10:20:58.771Z,20.48
2018-03-18T10:23:26.352Z,24.55
2018-03-18T10:25:53.949Z,25.35
2018-03-18T10:28:21.657Z,25.48
2018-03-18T10:30:49.372Z,26.15
2018-03-18T10:33:16.944Z,22.30
2018-03-18T10:35:45.310Z,28.60
2018-03-18T10:38:12.891Z,22.55
2018-03-18T10:40:40.471Z,21.85
2018-03-18T10:43:08.078Z,23.17
2018-03-18T10:45:35.847Z,22.35
2018-03-18T10:48:03.455Z,23.25
2018-03-18T10:50:31.111Z,24.25
2018-03-18T10:52:58.755Z,20.62
2018-03-18T10:55:26.443Z,20.12
2018-03-18T10:57:54.028Z,21.58
2018-03-18T11:00:21.607Z,23.35
2018-03-18T11:02:50.004Z,28.52
2018-03-18T11:05:18.520Z,20.65
2018-03-18T11:07:46.178Z,25.35
2018-03-18T11:10:13.784Z,21.45
2018-03-18T11:12:41.366Z,20.73
2018-03-18T11:15:09.877Z,24.60
2018-03-18T11:17:37.457Z,19.15
2018-03-18T11:20:05.048Z,22.85
2018-03-18T11:22:33.435Z,26.30
2018-03-18T11:25:01.839Z,20.70
2018-03-18T11:27:29.443Z,24.80
2018-03-18T11:29:57.071Z,22.73
2018-03-18T11:32:24.635Z,21.35
2018-03-18T11:34:52.438Z,24.42
2018-03-18T11:37:20.058Z,23.10
2018-03-18T11:39:47.627Z,23.15
2018-03-18T11:42:15.260Z,23.92
2018-03-18T11:44:42.834Z,28.23
2018-03-18T11:47:10.423Z,25.42
2018-03-18T11:49:37.988Z,25.37
2018-03-18T11:52:05.600Z,27.77
2018-03-18T11:54:33.186Z,17.15
2018-03-18T11:57:00.787Z,25.60
2018-03-18T11:59:29.220Z,19.42
2018-03-18T12:01:56.822Z,21.70
2018-03-18T12:04:25.210Z,24.05
2018-03-18T12:06:52.776Z,22.45
2018-03-18T12:09:20.363Z,26.02
2018-03-18T12:11:47.964Z,22.35
2018-03-18T12:14:15.567Z,25.77
2018-03-18T12:16:43.160Z,24.35
2018-03-18T12:19:10.748Z,25.10
2018-03-18T12:21:39.080Z,26.05
2018-03-18T12:24:06.727Z,27.62
2018-03-18T12:26:34.331Z,22.42
2018-03-18T12:29:03.431Z,20.27
2018-03-18T12:31:31.033Z,26.35
2018-03-18T12:33:58.607Z,21.70
2018-03-18T12:36:26.303Z,25.67
2018-03-18T12:38:53.883Z,24.15
2018-03-18T12:41:22.219Z,23.70
2018-03-18T12:43:49.816Z,21.58
2018-03-18T12:46:17.418Z,26.55
2018-03-18T12:48:45.131Z,24.17
2018-03-18T12:51:13.483Z,21.60
2018-03-18T12:53:41.074Z,27.23
2018-03-18T12:56:09.461Z,27.15
2018-03-18T12:58:37.968Z,24.35
2018-03-18T13:01:05.546Z,28.20
2018-03-18T13:03:33.347Z,26.52
2018-03-18T13:06:01.761Z,24.25
2018-03-18T13:08:30.109Z,21.12
2018-03-18T13:10:58.536Z,26.02
2018-03-18T13:13:26.214Z,23.08
2018-03-18T13:15:53.787Z,24.98
2018-03-18T13:18:21.370Z,21.23
2018-03-18T13:20:49.844Z,25.67
2018-03-18T13:23:18.378Z,25.48
2018-03-18T13:25:45.944Z,28.20
2018-03-18T13:28:13.579Z,24.33
2018-03-18T13:30:41.179Z,23.05
2018-03-18T13:33:08.757Z,22.98
2018-03-18T13:35:37.153Z,19.50
2018-03-18T13:38:04.850Z,20.70
2018-03-18T13:40:32.424Z,25.27
2018-03-18T13:43:00.053Z,24.00
2018-03-18T13:45:27.672Z,24.83
2018-03-18T13:47:55.307Z,23.10
2018-03-18T13:50:22.870Z,23.92
2018-03-18T13:52:50.490Z,27.05
2018-03-18T13:55:18.087Z,23.45
2018-03-18T13:57:45.696Z,23.73
2018-03-18T14:00:13.387Z,20.42
2018-03-18T14:02:40.975Z,23.42
2018-03-18T14:05:09.371Z,25.02
2018-03-18T20:10:18.668Z,24.10
2018-03-18T20:12:46.406Z,16.27
2018-03-18T20:15:14.968Z,24.00
2018-03-18T20:17:42.648Z,27.58
2018-03-18T20:20:11.026Z,26.75
2018-03-18T20:22:39.413Z,25.58
2018-03-18T20:25:07.770Z,25.08
2018-03-18T20:27:35.371Z,28.38
2018-03-18T20:30:03.002Z,32.35
2018-03-18T20:32:31.356Z,26.55
2018-03-18T20:34:58.957Z,25.62
2018-03-18T20:37:26.538Z,25.05
2018-03-18T20:39:54.171Z,28.83
2018-03-18T20:42:22.574Z,25.70
2018-03-18T20:44:50.201Z,26.05
2018-03-18T20:47:17.787Z,23.50
2018-03-18T20:49:45.398Z,23.05
2018-03-18T20:52:13.199Z,27.27
2018-03-18T20:54:40.798Z,21.75
2018-03-18T20:57:08.410Z,22.90
2018-03-18T20:59:36.004Z,24.87
2018-03-18T21:02:03.920Z,16.50
2018-03-18T21:04:32.274Z,23.30
2018-03-18T21:06:59.883Z,18.05
2018-03-18T21:09:27.459Z,25.15
2018-03-18T21:11:55.063Z,22.98
2018-03-18T21:14:22.646Z,23.80
2018-03-18T21:16:50.252Z,23.95
2018-03-18T21:19:17.852Z,26.48
2018-03-18T21:21:46.232Z,21.77
2018-03-18T21:24:14.580Z,22.92
2018-03-18T21:26:42.187Z,26.20
2018-03-18T21:29:09.808Z,27.80
2018-03-18T21:31:37.412Z,25.52
2018-03-18T21:34:05.040Z,27.48
2018-03-18T21:36:33.395Z,27.70
2018-03-18T21:39:01.012Z,22.67
2018-03-18T21:41:28.623Z,30.33
2018-03-18T21:43:56.241Z,24.48
2018-03-18T21:46:23.830Z,28.45
2018-03-18T21:48:51.418Z,34.03
2018-03-18T21:51:19.850Z,29.10
2018-03-18T21:53:47.418Z,23.98
2018-03-18T21:56:15.020Z,25.08
2018-03-18T21:58:43.384Z,27.80
2018-03-18T22:01:10.982Z,29.98
2018-03-18T22:03:38.592Z,21.00
2018-03-18T22:06:06.188Z,27.60
2018-03-18T22:08:33.772Z,25.37
2018-03-18T22:11:01.364Z,26.30
2018-03-18T22:13:28.933Z,26.70
2018-03-18T22:15:57.267Z,27.48
2018-03-18T22:18:24.863Z,31.85
2018-03-18T22:20:52.439Z,26.37
2018-03-18T22:23:20.831Z,27.37
2018-03-18T22:25:48.528Z,28.05
2018-03-18T22:28:16.299Z,24.65
2018-03-18T22:30:43.895Z,27.30
2018-03-18T22:33:11.497Z,28.60
2018-03-18T22:35:39.067Z,26.25
2018-03-18T22:38:06.680Z,22.70
2018-03-18T22:40:35.031Z,29.73
2018-03-18T22:43:02.648Z,22.42
2018-03-18T22:45:30.236Z,20.23
2018-03-18T22:47:57.987Z,26.20
2018-03-18T22:50:25.571Z,24.08
2018-03-18T22:52:53.180Z,28.67
2018-03-18T22:55:20.827Z,24.90
2018-03-18T22:57:49.256Z,34.88
2018-03-18T23:00:18.782Z,27.25
2018-03-18T23:02:46.399Z,30.42
2018-03-18T23:05:13.980Z,27.13
2018-03-18T23:07:41.566Z,27.55
2018-03-18T23:10:09.287Z,18.00
2018-03-18T23:12:36.853Z,27.67
2018-03-18T23:15:04.448Z,25.90
2018-03-18T23:17:32.803Z,27.92
2018-03-18T23:20:00.395Z,26.08
2018-03-18T23:22:28.944Z,28.65
2018-03-18T23:24:56.535Z,26.52
2018-03-18T23:27:24.867Z,27.55
2018-03-18T23:29:52.558Z,30.73
2018-03-18T23:32:20.241Z,29.60
2018-03-18T23:34:48.757Z,21.87
2018-03-18T23:37:16.361Z,22.58
2018-03-18T23:39:43.926Z,25.58
2018-03-18T23:42:12.356Z,27.48
2018-03-18T23:44:40.027Z,29.65
2018-03-18T23:47:07.647Z,26.17
2018-03-18T23:49:35.252Z,35.95
2018-03-18T23:52:02.847Z,24.65
2018-03-18T23:54:30.415Z,27.80
2018-03-18T23:56:58.926Z,26.58
2018-03-18T23:59:26.538Z,29.02
